Time;durP1;ratioP1;P1;durP2;ratioP2;P2;SDS_P1;SDS_P2;PMS_P1;PMS_P2;Temp;Humidity;BMP_temperature;BMP_pressure;BME280_temperature;BME280_humidity;BME280_pressure;Samples;Min_cycle;Max_cycle;Signal;HPM_P1;HPM_P2
2022/03/01 00:02:19;;;;;;;0.10;0.10;;;;;;;;;;5023740;28;20931;-79
2022/03/01 00:04:45;;;;;;;0.17;0.17;;;;;;;;;;5024360;28;20046;-79
2022/03/01 00:07:11;;;;;;;0.10;0.10;;;;;;;;;;5023772;28;20030;-77
2022/03/01 00:09:37;;;;;;;0.25;0.25;;;;;;;;;;5023325;28;20030;-77
2022/03/01 00:12:04;;;;;;;0.95;0.60;;;;;;;;;;5023696;28;20489;-78
2022/03/01 00:14:30;;;;;;;0.20;0.20;;;;;;;;;;5023541;28;20030;-77
2022/03/01 00:16:56;;;;;;;0.20;0.20;;;;;;;;;;5023590;28;20133;-78
2022/03/01 00:19:22;;;;;;;0.80;0.80;;;;;;;;;;5023885;28;20104;-79
2022/03/01 00:21:48;;;;;;;0.10;0.10;;;;;;;;;;5023641;28;20037;-78
2022/03/01 00:24:14;;;;;;;1.00;0.30;;;;;;;;;;5023639;28;20041;-78
2022/03/01 00:26:40;;;;;;;0.10;0.10;;;;;;;;;;5023569;28;20029;-78
2022/03/01 00:29:07;;;;;;;0.10;0.10;;;;;;;;;;5023360;28;20038;-79
2022/03/01 00:31:33;;;;;;;0.33;0.33;;;;;;;;;;5022694;28;20029;-77
2022/03/01 00:33:59;;;;;;;1.25;1.25;;;;;;;;;;5023053;28;20278;-77
2022/03/01 00:36:25;;;;;;;1.17;1.07;;;;;;;;;;5023046;28;20041;-77
2022/03/01 00:38:51;;;;;;;2.10;1.13;;;;;;;;;;5023569;28;20044;-77
2022/03/01 00:41:17;;;;;;;0.50;0.50;;;;;;;;;;5023602;28;20529;-79
2022/03/01 00:43:43;;;;;;;0.15;0.15;;;;;;;;;;5023927;28;20463;-77
2022/03/01 00:46:09;;;;;;;0.10;0.10;;;;;;;;;;5022610;28;20037;-77
2022/03/01 00:48:35;;;;;;;0.20;0.20;;;;;;;;;;5022843;28;20034;-77
2022/03/01 00:51:01;;;;;;;0.97;0.97;;;;;;;;;;5023208;28;20425;-77
2022/03/01 00:53:27;;;;;;;0.10;0.10;;;;;;;;;;5023358;28;20870;-77
2022/03/01 00:55:53;;;;;;;0.23;0.23;;;;;;;;;;5023417;28;20450;-78
2022/03/01 00:58:19;;;;;;;0.10;0.10;;;;;;;;;;5021722;28;20725;-77
2022/03/01 01:00:45;;;;;;;0.10;0.10;;;;;;;;;;5023114;28;20117;-78
2022/03/01 01:03:11;;;;;;;0.10;0.10;;;;;;;;;;5018786;28;20073;-78
2022/03/01 01:05:37;;;;;;;0.38;0.38;;;;;;;;;;5023204;28;20069;-78
2022/03/01 01:08:03;;;;;;;0.10;0.10;;;;;;;;;;5023610;28;20029;-78
2022/03/01 01:10:29;;;;;;;0.25;0.25;;;;;;;;;;5022214;28;20018;-78
2022/03/01 01:12:56;;;;;;;0.20;0.20;;;;;;;;;;5019157;28;20508;-77
2022/03/01 01:15:22;;;;;;;0.30;0.30;;;;;;;;;;5018759;28;20393;-78
2022/03/01 01:17:48;;;;;;;0.40;0.40;;;;;;;;;;5019015;28;20417;-77
2022/03/01 01:20:15;;;;;;;0.10;0.10;;;;;;;;;;5022503;28;20112;-77
2022/03/01 01:22:41;;;;;;;0.20;0.20;;;;;;;;;;5021426;28;20037;-78
2022/03/01 01:25:09;;;;;;;0.15;0.15;;;;;;;;;;5022484;28;20119;-78
2022/03/01 01:27:36;;;;;;;1.23;0.25;;;;;;;;;;5021165;28;20033;-77
2022/03/01 01:30:02;;;;;;;0.40;0.40;;;;;;;;;;5022132;28;20511;-77
2022/03/01 01:32:28;;;;;;;0.20;0.20;;;;;;;;;;5022587;28;20479;-77
2022/03/01 01:34:54;;;;;;;0.82;0.43;;;;;;;;;;5023083;28;20515;-77
2022/03/01 01:37:20;;;;;;;0.20;0.20;;;;;;;;;;5022799;28;20026;-76
2022/03/01 01:39:47;;;;;;;0.15;0.15;;;;;;;;;;5022218;28;20064;-76
2022/03/01 01:42:13;;;;;;;0.43;0.43;;;;;;;;;;5022300;28;20698;-76
2022/03/01 01:44:39;;;;;;;0.15;0.15;;;;;;;;;;5022379;28;20037;-76
2022/03/01 01:47:07;;;;;;;2.23;0.60;;;;;;;;;;5020959;28;20033;-76
2022/03/01 01:49:33;;;;;;;0.10;0.10;;;;;;;;;;5020682;28;20037;-76
2022/03/01 01:51:59;;;;;;;0.20;0.20;;;;;;;;;;5017555;28;20091;-76
2022/03/01 01:54:26;;;;;;;0.17;0.17;;;;;;;;;;5022348;28;20034;-76
2022/03/01 01:56:52;;;;;;;0.85;0.63;;;;;;;;;;5022262;28;20120;-76
2022/03/01 01:59:18;;;;;;;0.10;0.10;;;;;;;;;;5024327;28;20049;-76
2022/03/01 02:01:44;;;;;;;0.63;0.57;;;;;;;;;;5026776;28;20284;-76
2022/03/01 02:04:11;;;;;;;0.10;0.10;;;;;;;;;;5026416;28;20045;-77
2022/03/01 02:06:57;;;;;;;0.43;0.43;;;;;;;;;;5026288;28;20342;-76
2022/03/01 02:09:23;;;;;;;3.63;0.55;;;;;;;;;;5025758;28;20822;-78
2022/03/01 02:11:49;;;;;;;0.17;0.17;;;;;;;;;;5025637;28;20031;-78
2022/03/01 02:14:15;;;;;;;0.10;0.10;;;;;;;;;;5025692;28;20045;-78
2022/03/01 02:16:42;;;;;;;0.40;0.40;;;;;;;;;;5026544;28;20189;-78
2022/03/01 02:19:10;;;;;;;0.25;0.25;;;;;;;;;;5025752;28;20045;-77
2022/03/01 02:21:36;;;;;;;0.10;0.10;;;;;;;;;;5025567;28;20191;-78
2022/03/01 02:24:02;;;;;;;0.20;0.20;;;;;;;;;;5025577;28;20045;-78
2022/03/01 02:26:28;;;;;;;0.40;0.40;;;;;;;;;;5025781;28;20033;-76
2022/03/01 02:28:54;;;;;;;3.38;0.50;;;;;;;;;;5025677;28;20040;-76
2022/03/01 02:31:20;;;;;;;0.10;0.10;;;;;;;;;;5026216;28;20051;-76
2022/03/01 02:33:46;;;;;;;0.10;0.10;;;;;;;;;;5025732;28;20052;-76
2022/03/01 02:36:12;;;;;;;0.30;0.30;;;;;;;;;;5025715;28;20124;-76
2022/03/01 02:38:38;;;;;;;0.20;0.20;;;;;;;;;;5026267;28;20060;-76
2022/03/01 02:41:04;;;;;;;0.10;0.10;;;;;;;;;;5026193;28;20132;-76
2022/03/01 02:43:31;;;;;;;0.45;0.45;;;;;;;;;;5026412;28;20041;-76
2022/03/01 02:45:57;;;;;;;0.20;0.20;;;;;;;;;;5025568;28;20037;-76
2022/03/01 02:48:23;;;;;;;0.25;0.25;;;;;;;;;;5025609;28;20103;-76
2022/03/01 02:50:49;;;;;;;0.10;0.10;;;;;;;;;;5025665;28;20033;-76
2022/03/01 02:53:16;;;;;;;0.10;0.10;;;;;;;;;;5025588;28;20091;-76
2022/03/01 02:55:42;;;;;;;0.10;0.10;;;;;;;;;;5025910;28;20509;-77
2022/03/01 02:58:08;;;;;;;0.20;0.20;;;;;;;;;;5024936;28;20111;-77
2022/03/01 03:00:34;;;;;;;0.67;0.67;;;;;;;;;;5025190;28;20033;-78
2022/03/01 03:03:00;;;;;;;0.57;0.40;;;;;;;;;;5024827;28;20299;-78
2022/03/01 03:05:26;;;;;;;2.13;0.63;;;;;;;;;;5023561;28;20565;-78
2022/03/01 03:07:52;;;;;;;0.10;0.10;;;;;;;;;;5026069;28;20033;-79
2022/03/01 03:10:18;;;;;;;0.40;0.40;;;;;;;;;;5023835;28;20168;-78
2022/03/01 03:12:44;;;;;;;0.20;0.20;;;;;;;;;;5020485;28;20116;-79
2022/03/01 03:15:10;;;;;;;0.10;0.10;;;;;;;;;;5020244;28;20025;-77
2022/03/01 03:17:37;;;;;;;0.37;0.37;;;;;;;;;;5024812;28;20962;-79
2022/03/01 03:20:03;;;;;;;0.10;0.10;;;;;;;;;;5025214;28;20264;-78
2022/03/01 03:22:29;;;;;;;0.32;0.32;;;;;;;;;;5025585;28;20025;-78
2022/03/01 03:24:56;;;;;;;0.93;0.63;;;;;;;;;;5024692;28;20049;-78
2022/03/01 03:27:22;;;;;;;0.20;0.20;;;;;;;;;;5024735;28;20026;-76
2022/03/01 03:29:48;;;;;;;0.10;0.10;;;;;;;;;;5020384;28;20037;-77
2022/03/01 03:32:14;;;;;;;0.30;0.30;;;;;;;;;;5024717;28;20033;-80
2022/03/01 03:34:40;;;;;;;0.10;0.10;;;;;;;;;;5024673;28;20375;-79
2022/03/01 03:37:07;;;;;;;0.22;0.22;;;;;;;;;;5024189;28;20512;-79
2022/03/01 03:39:33;;;;;;;0.30;0.30;;;;;;;;;;5019745;28;20825;-76
2022/03/01 03:41:59;;;;;;;0.10;0.10;;;;;;;;;;5024524;28;20501;-76
2022/03/01 03:44:25;;;;;;;0.32;0.32;;;;;;;;;;5024015;28;20033;-76
2022/03/01 03:46:51;;;;;;;2.38;2.17;;;;;;;;;;5024971;28;20044;-79
2022/03/01 03:49:19;;;;;;;0.30;0.30;;;;;;;;;;5024605;28;20033;-78
2022/03/01 03:51:45;;;;;;;0.20;0.20;;;;;;;;;;5024103;28;20041;-78
2022/03/01 03:54:11;;;;;;;0.47;0.47;;;;;;;;;;5024173;28;20036;-77
2022/03/01 03:56:37;;;;;;;0.30;0.30;;;;;;;;;;5024101;28;20082;-77
2022/03/01 03:59:07;;;;;;;18.57;2.10;;;;;;;;;;5024014;28;20061;-77
2022/03/01 04:01:33;;;;;;;0.20;0.20;;;;;;;;;;5024405;28;20044;-77
2022/03/01 04:04:00;;;;;;;0.10;0.10;;;;;;;;;;5024367;28;20120;-77
2022/03/01 04:06:26;;;;;;;0.35;0.35;;;;;;;;;;5024286;28;20041;-77
2022/03/01 04:08:52;;;;;;;1.93;1.83;;;;;;;;;;5020347;28;20025;-78
2022/03/01 04:11:18;;;;;;;1.25;1.15;;;;;;;;;;5024174;28;20033;-79
2022/03/01 04:13:44;;;;;;;0.83;0.83;;;;;;;;;;5024705;28;20110;-78
2022/03/01 04:16:11;;;;;;;0.20;0.20;;;;;;;;;;5024064;28;20401;-79
2022/03/01 04:18:37;;;;;;;0.37;0.37;;;;;;;;;;5023723;28;20033;-79
2022/03/01 04:21:06;;;;;;;0.27;0.27;;;;;;;;;;5024179;28;21185;-78
2022/03/01 04:23:32;;;;;;;0.30;0.30;;;;;;;;;;5023766;28;20292;-79
2022/03/01 04:25:59;;;;;;;1.40;1.05;;;;;;;;;;5024946;28;20572;-78
2022/03/01 04:28:25;;;;;;;0.30;0.30;;;;;;;;;;5022853;28;20037;-78
2022/03/01 04:30:51;;;;;;;13.20;0.75;;;;;;;;;;5023798;28;20489;-78
2022/03/01 04:33:17;;;;;;;0.80;0.47;;;;;;;;;;5024571;28;20530;-77
2022/03/01 04:35:43;;;;;;;0.15;0.15;;;;;;;;;;5024120;28;20425;-78
2022/03/01 04:38:09;;;;;;;1.75;1.65;;;;;;;;;;5023903;28;20041;-79
2022/03/01 04:40:35;;;;;;;0.23;0.23;;;;;;;;;;5024092;28;20144;-78
2022/03/01 04:43:01;;;;;;;0.10;0.10;;;;;;;;;;5023756;28;20034;-79
2022/03/01 04:45:27;;;;;;;0.20;0.20;;;;;;;;;;5023810;28;20059;-78
2022/03/01 04:47:53;;;;;;;0.20;0.20;;;;;;;;;;5023656;28;20021;-79
2022/03/01 04:50:19;;;;;;;0.30;0.30;;;;;;;;;;5023472;28;20037;-79
2022/03/01 04:52:45;;;;;;;2.33;2.23;;;;;;;;;;5024264;28;20086;-78
2022/03/01 04:55:11;;;;;;;0.10;0.10;;;;;;;;;;5023428;28;20041;-78
2022/03/01 04:57:37;;;;;;;0.10;0.10;;;;;;;;;;5018486;28;20041;-78
2022/03/01 05:00:10;;;;;;;0.60;0.60;;;;;;;;;;5023348;28;20389;-78
2022/03/01 05:02:36;;;;;;;0.28;0.28;;;;;;;;;;5023513;28;20750;-78
2022/03/01 05:05:02;;;;;;;0.25;0.25;;;;;;;;;;5023940;28;20136;-78
2022/03/01 05:07:28;;;;;;;0.10;0.10;;;;;;;;;;5024106;28;20040;-78
2022/03/01 05:09:54;;;;;;;0.32;0.32;;;;;;;;;;5023389;28;20288;-79
2022/03/01 05:12:21;;;;;;;0.50;0.50;;;;;;;;;;5023041;28;20033;-80
2022/03/01 05:14:47;;;;;;;0.30;0.30;;;;;;;;;;5023251;28;20064;-80
2022/03/01 05:17:13;;;;;;;1.42;1.00;;;;;;;;;;5023279;28;20060;-80
2022/03/01 05:19:39;;;;;;;0.47;0.47;;;;;;;;;;5023207;28;20566;-79
2022/03/01 05:22:06;;;;;;;0.13;0.13;;;;;;;;;;5022921;28;20284;-79
2022/03/01 05:24:32;;;;;;;0.20;0.20;;;;;;;;;;5022686;28;20854;-80
2022/03/01 05:26:58;;;;;;;0.10;0.10;;;;;;;;;;5023094;28;20025;-79
2022/03/01 05:29:24;;;;;;;0.60;0.60;;;;;;;;;;5023605;28;20030;-80
2022/03/01 05:31:52;;;;;;;1.17;0.73;;;;;;;;;;5019582;28;20025;-79
2022/03/01 05:34:18;;;;;;;0.57;0.57;;;;;;;;;;5022093;28;20037;-79
2022/03/01 05:36:44;;;;;;;0.20;0.20;;;;;;;;;;5022576;28;20041;-79
2022/03/01 05:39:10;;;;;;;0.30;0.30;;;;;;;;;;5022767;28;20040;-79
2022/03/01 05:41:37;;;;;;;1.02;0.52;;;;;;;;;;5022678;28;20040;-78
2022/03/01 05:44:03;;;;;;;0.20;0.20;;;;;;;;;;5022501;28;20083;-77
2022/03/01 05:46:29;;;;;;;1.17;0.50;;;;;;;;;;5022918;28;20323;-79
2022/03/01 05:48:55;;;;;;;0.10;0.10;;;;;;;;;;5022899;28;20036;-78
2022/03/01 05:51:21;;;;;;;7.60;1.10;;;;;;;;;;5018360;28;20030;-76
2022/03/01 05:53:47;;;;;;;0.20;0.20;;;;;;;;;;5022917;28;20715;-78
2022/03/01 05:56:13;;;;;;;0.77;0.23;;;;;;;;;;5023043;28;20025;-78
2022/03/01 05:58:39;;;;;;;0.20;0.20;;;;;;;;;;5022853;28;20085;-78
2022/03/01 06:01:05;;;;;;;0.40;0.40;;;;;;;;;;5022559;28;20338;-78
2022/03/01 06:03:31;;;;;;;0.10;0.10;;;;;;;;;;5022360;28;20052;-78
2022/03/01 06:05:57;;;;;;;0.20;0.20;;;;;;;;;;5022454;28;20029;-78
2022/03/01 06:08:23;;;;;;;0.20;0.20;;;;;;;;;;5022435;28;20029;-81
2022/03/01 06:10:50;;;;;;;0.20;0.20;;;;;;;;;;5020169;28;20037;-79
2022/03/01 06:13:16;;;;;;;0.20;0.20;;;;;;;;;;5012677;28;20037;-81
2022/03/01 06:15:42;;;;;;;0.10;0.10;;;;;;;;;;5018323;28;20044;-80
2022/03/01 06:18:08;;;;;;;3.60;1.95;;;;;;;;;;5022352;28;20288;-80
2022/03/01 06:20:34;;;;;;;0.32;0.32;;;;;;;;;;5022368;28;20026;-82
2022/03/01 06:23:00;;;;;;;0.40;0.40;;;;;;;;;;5022073;28;20255;-81
2022/03/01 06:25:26;;;;;;;0.90;0.90;;;;;;;;;;5017379;28;20052;-78
2022/03/01 06:27:53;;;;;;;0.20;0.20;;;;;;;;;;5021799;28;20492;-78
2022/03/01 06:30:19;;;;;;;;;;;;;;;;;;5022378;28;20026;-78
2022/03/01 06:32:45;;;;;;;0.82;0.57;;;;;;;;;;5021974;28;20465;-78
2022/03/01 06:35:11;;;;;;;0.33;0.33;;;;;;;;;;5021958;28;20037;-78
2022/03/01 06:37:38;;;;;;;0.45;0.45;;;;;;;;;;5022414;28;20524;-77
2022/03/01 06:40:06;;;;;;;;;;;;;;;;;;5021982;28;20025;-79
2022/03/01 06:42:32;;;;;;;0.20;0.20;;;;;;;;;;5021810;28;19962;-79
2022/03/01 06:44:58;;;;;;;0.20;0.20;;;;;;;;;;5023695;28;20045;-79
2022/03/01 06:47:24;;;;;;;0.30;0.30;;;;;;;;;;5025210;28;20385;-84
2022/03/01 06:49:51;;;;;;;0.17;0.17;;;;;;;;;;5015984;28;20573;-80
2022/03/01 06:52:17;;;;;;;0.20;0.20;;;;;;;;;;5024544;28;20029;-80
2022/03/01 06:54:43;;;;;;;0.20;0.20;;;;;;;;;;5021863;28;20026;-81
2022/03/01 06:57:09;;;;;;;0.65;0.60;;;;;;;;;;5019137;28;20044;-80
2022/03/01 06:59:35;;;;;;;0.30;0.30;;;;;;;;;;5020571;28;20049;-81
2022/03/01 07:02:01;;;;;;;1.10;0.33;;;;;;;;;;5018539;28;20156;-81
2022/03/01 07:04:27;;;;;;;0.20;0.20;;;;;;;;;;5017415;28;20957;-81
2022/03/01 07:06:54;;;;;;;0.10;0.10;;;;;;;;;;5022378;28;20646;-82
2022/03/01 07:09:21;;;;;;;0.20;0.20;;;;;;;;;;5024771;28;20041;-82
2022/03/01 07:11:46;;;;;;;;;;;;;;;;;;5024957;28;20070;-82
2022/03/01 07:14:12;;;;;;;0.17;0.17;;;;;;;;;;5024514;28;19919;-82
2022/03/01 07:16:39;;;;;;;4.88;0.85;;;;;;;;;;5022717;28;20520;-78
2022/03/01 07:19:05;;;;;;;0.10;0.10;;;;;;;;;;5023015;28;20592;-81
2022/03/01 07:21:31;;;;;;;0.05;0.05;;;;;;;;;;5023272;28;20064;-81
2022/03/01 07:23:57;;;;;;;0.00;0.00;;;;;;;;;;5020732;28;20069;-83
2022/03/01 07:26:23;;;;;;;0.28;0.28;;;;;;;;;;5020416;28;20033;-87
2022/03/01 07:28:49;;;;;;;0.20;0.20;;;;;;;;;;5022870;28;20033;-84
2022/03/01 07:31:15;;;;;;;0.10;0.10;;;;;;;;;;5018845;28;20037;-86
2022/03/01 07:33:41;;;;;;;0.17;0.17;;;;;;;;;;5019931;28;20031;-84
2022/03/01 07:36:08;;;;;;;0.28;0.28;;;;;;;;;;5021133;28;20041;-89
2022/03/01 07:38:34;;;;;;;0.20;0.15;;;;;;;;;;5020685;28;21669;-86
2022/03/01 07:41:00;;;;;;;0.20;0.20;;;;;;;;;;5020234;28;20037;-85
2022/03/01 07:43:26;;;;;;;0.32;0.32;;;;;;;;;;5020544;28;20068;-82
2022/03/01 07:45:52;;;;;;;0.45;0.45;;;;;;;;;;5018672;28;20037;-83
2022/03/01 07:48:18;;;;;;;0.30;0.30;;;;;;;;;;5020695;28;20049;-82
2022/03/01 07:50:44;;;;;;;0.10;0.10;;;;;;;;;;5022410;28;20664;-84
2022/03/01 07:53:10;;;;;;;0.10;0.10;;;;;;;;;;5022390;28;20108;-84
2022/03/01 07:55:36;;;;;;;0.67;0.67;;;;;;;;;;5023271;28;20029;-83
2022/03/01 07:58:02;;;;;;;0.22;0.22;;;;;;;;;;5020725;28;20041;-84
2022/03/01 08:00:28;;;;;;;0.10;0.10;;;;;;;;;;5019316;28;20371;-85
2022/03/01 08:02:54;;;;;;;0.10;0.10;;;;;;;;;;5017818;28;20036;-84
2022/03/01 08:05:21;;;;;;;0.20;0.20;;;;;;;;;;5021658;28;20102;-82
2022/03/01 08:07:47;;;;;;;0.30;0.30;;;;;;;;;;5022435;28;20041;-80
2022/03/01 08:10:13;;;;;;;0.27;0.27;;;;;;;;;;5021497;28;20076;-80
2022/03/01 08:12:39;;;;;;;0.60;0.30;;;;;;;;;;5021895;28;20087;-80
2022/03/01 08:15:05;;;;;;;0.30;0.30;;;;;;;;;;5019989;28;20030;-80
2022/03/01 08:17:31;;;;;;;1.25;0.52;;;;;;;;;;5018228;28;20037;-80
2022/03/01 08:19:57;;;;;;;0.38;0.38;;;;;;;;;;5020731;28;20045;-81
2022/03/01 08:22:23;;;;;;;0.20;0.20;;;;;;;;;;5020232;28;20029;-80
2022/03/01 08:24:50;;;;;;;0.40;0.40;;;;;;;;;;5018038;28;20299;-80
2022/03/01 08:27:17;;;;;;;0.10;0.10;;;;;;;;;;5015453;28;20945;-80
2022/03/01 08:29:43;;;;;;;1.08;0.82;;;;;;;;;;5017246;28;20034;-80
2022/03/01 08:32:09;;;;;;;0.67;0.67;;;;;;;;;;5021306;28;20065;-80
2022/03/01 08:34:35;;;;;;;0.40;0.40;;;;;;;;;;5020978;28;20116;-81
2022/03/01 08:37:01;;;;;;;0.23;0.23;;;;;;;;;;5017976;28;20038;-80
2022/03/01 08:39:27;;;;;;;0.20;0.20;;;;;;;;;;5022378;28;20304;-79
2022/03/01 08:41:55;;;;;;;0.45;0.45;;;;;;;;;;5020228;28;20172;-77
2022/03/01 08:44:21;;;;;;;0.35;0.35;;;;;;;;;;5015447;28;20129;-76
2022/03/01 08:46:47;;;;;;;0.20;0.20;;;;;;;;;;5022352;28;20053;-78
2022/03/01 08:49:13;;;;;;;0.87;0.87;;;;;;;;;;5021765;28;21604;-79
2022/03/01 08:51:39;;;;;;;0.20;0.20;;;;;;;;;;5021666;28;20359;-78
2022/03/01 08:54:05;;;;;;;0.35;0.35;;;;;;;;;;5017399;28;20048;-79
2022/03/01 08:56:31;;;;;;;0.10;0.10;;;;;;;;;;5019578;28;20087;-79
2022/03/01 08:58:57;;;;;;;0.40;0.30;;;;;;;;;;5018848;28;20139;-78
2022/03/01 09:01:23;;;;;;;0.40;0.40;;;;;;;;;;5020076;28;20042;-79
2022/03/01 09:03:49;;;;;;;0.17;0.17;;;;;;;;;;5021775;28;20044;-79
2022/03/01 09:06:15;;;;;;;1.60;1.50;;;;;;;;;;5016034;28;20033;-79
2022/03/01 09:08:41;;;;;;;0.10;0.10;;;;;;;;;;5017277;28;20412;-79
2022/03/01 09:11:08;;;;;;;0.43;0.43;;;;;;;;;;5018500;28;20064;-79
2022/03/01 09:13:34;;;;;;;0.15;0.15;;;;;;;;;;5019419;28;20094;-79
2022/03/01 09:16:00;;;;;;;0.20;0.20;;;;;;;;;;5018839;28;20045;-79
2022/03/01 09:18:26;;;;;;;0.63;0.50;;;;;;;;;;5021476;28;20037;-79
2022/03/01 09:20:53;;;;;;;0.10;0.10;;;;;;;;;;5019010;28;20049;-79
2022/03/01 09:23:19;;;;;;;0.28;0.28;;;;;;;;;;5019495;28;20076;-80
2022/03/01 09:25:45;;;;;;;12.83;2.50;;;;;;;;;;5019256;28;20087;-80
2022/03/01 09:28:11;;;;;;;0.10;0.10;;;;;;;;;;5019498;28;20037;-79
2022/03/01 09:30:37;;;;;;;0.27;0.27;;;;;;;;;;5018708;28;20288;-79
2022/03/01 09:33:03;;;;;;;0.07;0.07;;;;;;;;;;5017584;28;20032;-79
2022/03/01 09:35:30;;;;;;;0.50;0.40;;;;;;;;;;5018794;28;20295;-80
2022/03/01 09:37:56;;;;;;;0.20;0.20;;;;;;;;;;5019981;28;20029;-79
2022/03/01 09:40:22;;;;;;;0.50;0.33;;;;;;;;;;5020930;28;20037;-79
2022/03/01 09:42:51;;;;;;;0.10;0.10;;;;;;;;;;5018721;28;20033;-79
2022/03/01 09:45:17;;;;;;;0.10;0.10;;;;;;;;;;5019262;28;20154;-79
2022/03/01 09:47:43;;;;;;;0.73;0.73;;;;;;;;;;5020196;28;20025;-79
2022/03/01 09:50:10;;;;;;;0.23;0.23;;;;;;;;;;5018960;28;20115;-79
2022/03/01 09:52:37;;;;;;;0.32;0.22;;;;;;;;;;5019452;28;20347;-79
2022/03/01 09:55:04;;;;;;;0.43;0.38;;;;;;;;;;5022385;28;20113;-79
2022/03/01 09:57:30;;;;;;;0.22;0.22;;;;;;;;;;5021918;28;20029;-79
2022/03/01 09:59:56;;;;;;;0.10;0.10;;;;;;;;;;5021853;28;20041;-79
2022/03/01 10:02:32;;;;;;;0.83;0.83;;;;;;;;;;5020618;28;20030;-79
2022/03/01 10:04:58;;;;;;;0.20;0.20;;;;;;;;;;5019484;28;20044;-79
2022/03/01 10:07:25;;;;;;;0.25;0.25;;;;;;;;;;5021482;28;20033;-80
2022/03/01 10:09:52;;;;;;;0.20;0.20;;;;;;;;;;5022401;28;20033;-80
2022/03/01 10:12:22;;;;;;;0.20;0.20;;;;;;;;;;5022383;28;20060;-80
2022/03/01 10:14:54;;;;;;;1.00;0.75;;;;;;;;;;5022209;28;20457;-79
2022/03/01 10:17:20;;;;;;;0.20;0.20;;;;;;;;;;5022223;28;20049;-80
2022/03/01 10:19:46;;;;;;;0.55;0.55;;;;;;;;;;5024196;28;20073;-79
2022/03/01 10:22:13;;;;;;;0.10;0.10;;;;;;;;;;5025844;28;20106;-80
2022/03/01 10:24:47;;;;;;;0.27;0.27;;;;;;;;;;5025689;28;20041;-79
2022/03/01 10:27:13;;;;;;;0.20;0.20;;;;;;;;;;5025077;28;20030;-79
2022/03/01 10:29:46;;;;;;;0.57;0.50;;;;;;;;;;5024877;28;20112;-79
2022/03/01 10:32:13;;;;;;;0.20;0.20;;;;;;;;;;5025680;28;20739;-80
2022/03/01 10:34:39;;;;;;;3.13;0.63;;;;;;;;;;5026589;28;20041;-80
2022/03/01 10:37:05;;;;;;;0.10;0.10;;;;;;;;;;5024763;28;20405;-79
2022/03/01 10:39:33;;;;;;;0.53;0.53;;;;;;;;;;5024907;28;20207;-79
2022/03/01 10:41:59;;;;;;;2.10;1.25;;;;;;;;;;5025501;28;20276;-80
2022/03/01 10:44:29;;;;;;;0.10;0.10;;;;;;;;;;5024947;28;20038;-80
2022/03/01 10:47:00;;;;;;;0.10;0.10;;;;;;;;;;5021075;28;20026;-79
2022/03/01 10:49:27;;;;;;;0.10;0.10;;;;;;;;;;5025151;28;20072;-80
2022/03/01 10:51:54;;;;;;;0.10;0.10;;;;;;;;;;5024723;28;20109;-79
2022/03/01 10:54:28;;;;;;;0.10;0.10;;;;;;;;;;5024695;28;20501;-80
2022/03/01 10:56:55;;;;;;;0.20;0.20;;;;;;;;;;5025311;28;20064;-79
2022/03/01 10:59:22;;;;;;;0.20;0.20;;;;;;;;;;5025189;28;20033;-80
2022/03/01 11:01:48;;;;;;;0.20;0.20;;;;;;;;;;5026142;28;20072;-80
2022/03/01 11:04:14;;;;;;;0.20;0.20;;;;;;;;;;5021272;28;20100;-79
2022/03/01 11:06:41;;;;;;;0.30;0.30;;;;;;;;;;5018537;28;20037;-80
2022/03/01 11:09:08;;;;;;;0.20;0.20;;;;;;;;;;5020175;28;20374;-79
2022/03/01 11:11:34;;;;;;;;;;;;;;;;;;5018907;28;20112;-80
2022/03/01 11:14:00;;;;;;;0.20;0.20;;;;;;;;;;5022729;28;19921;-77
2022/03/01 11:16:46;;;;;;;0.10;0.10;;;;;;;;;;5023359;28;20057;-79
2022/03/01 11:19:15;;;;;;;0.20;0.20;;;;;;;;;;5021426;28;20045;-79
2022/03/01 11:21:42;;;;;;;0.17;0.17;;;;;;;;;;5020161;28;20037;-79
2022/03/01 11:24:08;;;;;;;;;;;;;;;;;;5021093;28;20048;-79
2022/03/01 11:26:38;;;;;;;0.20;0.20;;;;;;;;;;5020513;28;19909;-79
2022/03/01 11:29:09;;;;;;;1.55;0.50;;;;;;;;;;5020161;28;20124;-79
2022/03/01 11:31:35;;;;;;;0.20;0.20;;;;;;;;;;5019117;28;20064;-80
2022/03/01 11:34:01;;;;;;;0.33;0.33;;;;;;;;;;5020269;28;20021;-80
2022/03/01 11:36:29;;;;;;;0.30;0.30;;;;;;;;;;5019908;28;20033;-79
2022/03/01 11:38:55;;;;;;;0.20;0.20;;;;;;;;;;5020877;28;20453;-79
2022/03/01 11:41:22;;;;;;;0.20;0.20;;;;;;;;;;5019696;28;20505;-79
2022/03/01 11:44:08;;;;;;;0.32;0.32;;;;;;;;;;5024392;28;20818;-79
2022/03/01 11:46:41;;;;;;;0.20;0.20;;;;;;;;;;5023015;28;20030;-80
2022/03/01 11:49:07;;;;;;;0.22;0.22;;;;;;;;;;5019531;28;20116;-80
2022/03/01 11:51:39;;;;;;;0.40;0.40;;;;;;;;;;5020449;28;20410;-81
2022/03/01 11:54:06;;;;;;;0.20;0.20;;;;;;;;;;5024244;28;20033;-80
2022/03/01 11:56:33;;;;;;;0.20;0.20;;;;;;;;;;5024536;28;20409;-80
2022/03/01 11:59:04;;;;;;;0.40;0.40;;;;;;;;;;5023345;28;20053;-80
2022/03/01 12:01:32;;;;;;;0.10;0.10;;;;;;;;;;5020621;28;20030;-80
2022/03/01 12:04:00;;;;;;;0.30;0.30;;;;;;;;;;5020683;28;20049;-80
2022/03/01 12:06:30;;;;;;;0.30;0.30;;;;;;;;;;5020638;28;20254;-80
2022/03/01 12:08:59;;;;;;;0.20;0.20;;;;;;;;;;5021728;28;20033;-80
2022/03/01 12:11:33;;;;;;;0.20;0.20;;;;;;;;;;5018694;28;20034;-80
2022/03/01 12:14:04;;;;;;;0.50;0.50;;;;;;;;;;5020429;28;20057;-79
2022/03/01 12:16:31;;;;;;;0.20;0.20;;;;;;;;;;5022301;28;20108;-80
2022/03/01 12:19:10;;;;;;;0.40;0.40;;;;;;;;;;5020084;28;20033;-80
2022/03/01 12:21:36;;;;;;;0.20;0.20;;;;;;;;;;5020987;28;20033;-80
2022/03/01 12:24:03;;;;;;;0.20;0.20;;;;;;;;;;5019561;28;20049;-80
2022/03/01 12:26:29;;;;;;;0.20;0.20;;;;;;;;;;5020414;28;20101;-80
2022/03/01 12:28:58;;;;;;;0.35;0.35;;;;;;;;;;5020765;28;20045;-79
2022/03/01 12:31:26;;;;;;;0.20;0.20;;;;;;;;;;5020007;28;20117;-79
2022/03/01 12:33:54;;;;;;;0.20;0.20;;;;;;;;;;5021263;28;20033;-80
2022/03/01 12:36:27;;;;;;;0.20;0.20;;;;;;;;;;5017221;28;20554;-79
2022/03/01 12:38:54;;;;;;;0.20;0.20;;;;;;;;;;5021883;28;20056;-79
2022/03/01 12:41:22;;;;;;;0.30;0.30;;;;;;;;;;5021109;28;20083;-79
2022/03/01 12:44:14;;;;;;;0.85;0.85;;;;;;;;;;5020755;28;20522;-80
2022/03/01 12:46:41;;;;;;;0.20;0.20;;;;;;;;;;5019833;28;20115;-80
2022/03/01 12:49:08;;;;;;;0.30;0.30;;;;;;;;;;5020804;28;20087;-80
2022/03/01 12:51:34;;;;;;;0.40;0.40;;;;;;;;;;5021993;28;20569;-79
2022/03/01 12:54:02;;;;;;;0.40;0.40;;;;;;;;;;5021414;28;20029;-79
2022/03/01 12:56:30;;;;;;;0.20;0.20;;;;;;;;;;5022326;28;20041;-79
2022/03/01 12:59:01;;;;;;;0.40;0.40;;;;;;;;;;5023257;28;20057;-80
2022/03/01 13:01:27;;;;;;;0.20;0.20;;;;;;;;;;5016440;28;20034;-80
2022/03/01 13:03:53;;;;;;;0.20;0.20;;;;;;;;;;5022689;28;20041;-78
2022/03/01 13:06:20;;;;;;;0.20;0.20;;;;;;;;;;5020642;28;20360;-77
2022/03/01 13:08:49;;;;;;;;;;;;;;;;;;5022941;28;20206;-78
2022/03/01 13:11:15;;;;;;;0.20;0.20;;;;;;;;;;5022761;28;19913;-77
2022/03/01 13:13:43;;;;;;;0.40;0.40;;;;;;;;;;5022411;28;20068;-78
2022/03/01 13:16:09;;;;;;;0.20;0.20;;;;;;;;;;5021906;28;20451;-78
2022/03/01 13:18:35;;;;;;;0.57;0.57;;;;;;;;;;5022133;28;20499;-79
2022/03/01 13:21:01;;;;;;;0.20;0.20;;;;;;;;;;5022062;28;20081;-79
2022/03/01 13:23:29;;;;;;;0.20;0.20;;;;;;;;;;5021876;28;20075;-81
2022/03/01 13:25:56;;;;;;;0.20;0.20;;;;;;;;;;5023162;28;20036;-80
2022/03/01 13:28:32;;;;;;;0.20;0.20;;;;;;;;;;5021987;28;20124;-79
2022/03/01 13:30:58;;;;;;;0.30;0.30;;;;;;;;;;5022132;28;20040;-79
2022/03/01 13:33:27;;;;;;;0.20;0.20;;;;;;;;;;5022093;28;20075;-80
2022/03/01 13:35:53;;;;;;;0.30;0.30;;;;;;;;;;5022050;28;20033;-79
2022/03/01 13:38:20;;;;;;;0.20;0.20;;;;;;;;;;5020882;28;20025;-78
2022/03/01 13:40:46;;;;;;;0.30;0.30;;;;;;;;;;5022884;28;20025;-79
2022/03/01 13:43:14;;;;;;;0.20;0.20;;;;;;;;;;5020609;28;20041;-78
2022/03/01 13:45:42;;;;;;;0.20;0.20;;;;;;;;;;5021723;28;20476;-80
2022/03/01 13:48:11;;;;;;;0.20;0.20;;;;;;;;;;5019892;28;20103;-79
2022/03/01 13:50:37;;;;;;;0.20;0.20;;;;;;;;;;5020152;28;20033;-79
2022/03/01 13:53:13;;;;;;;0.10;0.10;;;;;;;;;;5020069;28;20029;-80
2022/03/01 13:55:40;;;;;;;0.20;0.20;;;;;;;;;;5021927;28;20026;-79
2022/03/01 13:58:07;;;;;;;0.30;0.30;;;;;;;;;;5024366;28;20572;-79
2022/03/01 14:00:36;;;;;;;0.20;0.20;;;;;;;;;;5024592;28;20120;-79
2022/03/01 14:03:18;;;;;;;0.70;0.43;;;;;;;;;;5025056;28;20033;-79
2022/03/01 14:05:56;;;;;;;0.20;0.20;;;;;;;;;;5026115;28;20049;-78
2022/03/01 14:08:22;;;;;;;0.20;0.20;;;;;;;;;;5026292;28;20032;-78
2022/03/01 14:10:50;;;;;;;0.20;0.20;;;;;;;;;;5026104;28;20623;-78
2022/03/01 14:13:18;;;;;;;0.20;0.20;;;;;;;;;;5023698;28;20033;-78
2022/03/01 14:15:45;;;;;;;0.10;0.10;;;;;;;;;;5025467;28;20032;-78
2022/03/01 14:18:12;;;;;;;0.20;0.20;;;;;;;;;;5025947;28;20029;-78
2022/03/01 14:20:39;;;;;;;0.30;0.30;;;;;;;;;;5024497;28;20124;-76
2022/03/01 14:23:05;;;;;;;0.17;0.17;;;;;;;;;;5024135;28;20048;-79
2022/03/01 14:25:31;;;;;;;0.10;0.10;;;;;;;;;;5027096;28;20148;-79
2022/03/01 14:27:57;;;;;;;0.20;0.20;;;;;;;;;;5024157;28;20025;-80
2022/03/01 14:30:24;;;;;;;0.20;0.20;;;;;;;;;;5024182;28;20303;-79
2022/03/01 14:32:51;;;;;;;0.20;0.20;;;;;;;;;;5025717;28;20022;-79
2022/03/01 14:35:18;;;;;;;0.30;0.30;;;;;;;;;;5024162;28;20046;-80
2022/03/01 14:37:44;;;;;;;0.25;0.25;;;;;;;;;;5026868;28;20030;-80
2022/03/01 14:40:10;;;;;;;0.20;0.20;;;;;;;;;;5024782;28;20705;-79
2022/03/01 14:42:36;;;;;;;0.28;0.28;;;;;;;;;;5024270;28;20037;-79
2022/03/01 14:45:03;;;;;;;0.30;0.30;;;;;;;;;;5024922;28;20034;-79